createdAt,value
2022-11-27T00:01:18.019Z,3.01
2022-11-27T00:03:44.670Z,3.34
2022-11-27T00:06:16.255Z,3.23
2022-11-27T00:08:44.114Z,3.24
2022-11-27T00:11:13.529Z,3.32
2022-11-27T00:13:40.679Z,3.35
2022-11-27T00:16:08.040Z,3.32
2022-11-27T00:18:34.913Z,3.34
2022-11-27T00:21:13.738Z,3.11
2022-11-27T00:23:40.852Z,3.13
2022-11-27T00:26:07.763Z,3.14
2022-11-27T00:28:35.152Z,3.15
2022-11-27T00:31:07.508Z,3.15
2022-11-27T00:33:34.633Z,3.30
2022-11-27T00:36:06.048Z,3.41
2022-11-27T00:38:38.329Z,3.39
2022-11-27T00:41:07.707Z,3.38
2022-11-27T00:43:43.479Z,3.43
2022-11-27T00:46:12.951Z,3.53
2022-11-27T00:48:39.565Z,3.42
2022-11-27T00:51:08.465Z,3.48
2022-11-27T00:53:35.431Z,3.45
2022-11-27T00:56:02.252Z,3.68
2022-11-27T00:58:30.164Z,3.75
2022-11-27T01:00:58.851Z,3.67
2022-11-27T01:03:26.445Z,3.85
2022-11-27T01:05:52.949Z,3.86
2022-11-27T01:08:20.271Z,3.68
2022-11-27T01:10:55.189Z,3.75
2022-11-27T01:13:30.553Z,3.67
2022-11-27T01:16:00.901Z,3.67
2022-11-27T01:18:27.773Z,3.80
2022-11-27T01:20:55.220Z,3.76
2022-11-27T01:23:22.795Z,3.85
2022-11-27T01:25:49.838Z,3.74
2022-11-27T01:28:17.038Z,3.87
2022-11-27T01:30:43.490Z,3.96
2022-11-27T01:33:09.974Z,3.86
2022-11-27T01:35:36.449Z,3.89
2022-11-27T01:38:03.532Z,3.76
2022-11-27T01:40:30.048Z,4.04
2022-11-27T01:42:56.579Z,3.69
2022-11-27T01:45:23.205Z,3.91
2022-11-27T01:47:57.316Z,3.82
2022-11-27T01:50:31.406Z,3.85
2022-11-27T01:53:02.988Z,3.83
2022-11-27T01:55:53.912Z,3.95
2022-11-27T01:58:25.383Z,3.83
2022-11-27T02:00:52.143Z,3.75
2022-11-27T02:03:18.952Z,3.71
2022-11-27T02:05:45.787Z,3.70
2022-11-27T02:08:16.198Z,3.70
2022-11-27T02:11:05.281Z,3.94
2022-11-27T02:13:58.936Z,3.93
2022-11-27T02:16:52.885Z,3.88
2022-11-27T02:19:55.463Z,3.82
2022-11-27T02:22:46.946Z,3.82
2022-11-27T02:25:28.562Z,4.00
2022-11-27T02:28:29.077Z,3.85
2022-11-27T02:31:05.813Z,3.78
2022-11-27T02:33:35.298Z,3.71
2022-11-27T02:36:09.624Z,3.75
2022-11-27T02:38:44.557Z,3.77
2022-11-27T02:41:24.819Z,3.64
2022-11-27T02:43:53.175Z,3.72
2022-11-27T02:46:20.742Z,3.79
2022-11-27T02:48:55.417Z,3.94
2022-11-27T02:51:39.067Z,3.73
2022-11-27T02:54:10.037Z,3.91
2022-11-27T02:56:38.640Z,3.68
2022-11-27T02:59:09.297Z,3.62
2022-11-27T03:01:52.054Z,3.85
2022-11-27T03:04:22.954Z,3.67
2022-11-27T03:06:54.402Z,3.76
2022-11-27T03:09:28.744Z,3.74
2022-11-27T03:11:55.874Z,3.48
2022-11-27T03:14:24.743Z,3.51
2022-11-27T03:17:05.912Z,3.51
2022-11-27T03:19:43.007Z,3.53
2022-11-27T03:22:10.918Z,3.71
2022-11-27T03:24:37.632Z,3.72
2022-11-27T03:27:05.293Z,3.68
2022-11-27T03:29:41.234Z,3.46
2022-11-27T03:32:07.889Z,3.43
2022-11-27T03:34:35.385Z,3.55
2022-11-27T03:37:02.384Z,3.44
2022-11-27T03:39:30.276Z,3.34
2022-11-27T03:42:24.492Z,3.45
2022-11-27T03:45:14.140Z,3.41
2022-11-27T03:48:06.609Z,3.35
2022-11-27T03:50:57.500Z,3.31
2022-11-27T03:54:01.166Z,3.28
2022-11-27T03:56:39.009Z,3.16
2022-11-27T03:59:25.791Z,3.11
2022-11-27T04:01:52.384Z,3.14
2022-11-27T04:04:18.948Z,3.07
2022-11-27T04:06:45.797Z,3.23
2022-11-27T04:09:12.413Z,3.06
2022-11-27T04:11:38.909Z,2.96
2022-11-27T04:14:05.839Z,2.89
2022-11-27T04:16:32.403Z,3.12
2022-11-27T04:18:58.945Z,2.97
2022-11-27T04:21:25.436Z,2.84
2022-11-27T04:23:51.895Z,3.02
2022-11-27T04:26:18.371Z,2.86
2022-11-27T04:28:44.833Z,2.96
2022-11-27T04:31:11.353Z,2.84
2022-11-27T04:33:38.024Z,2.85
2022-11-27T04:36:04.842Z,2.92
2022-11-27T04:38:31.343Z,2.95
2022-11-27T04:40:57.982Z,2.90
2022-11-27T04:43:24.465Z,3.01
2022-11-27T04:45:50.995Z,3.26
2022-11-27T04:48:17.553Z,3.15
2022-11-27T04:50:44.026Z,3.00
2022-11-27T04:53:10.474Z,3.06
2022-11-27T04:55:36.968Z,3.07
2022-11-27T04:58:03.692Z,3.00
2022-11-27T05:00:30.220Z,2.97
2022-11-27T05:02:56.821Z,3.00
2022-11-27T05:05:23.438Z,3.18
2022-11-27T05:07:50.040Z,2.82
2022-11-27T05:10:16.652Z,3.01
2022-11-27T05:12:43.175Z,2.73
2022-11-27T05:15:09.829Z,2.86
2022-11-27T05:17:36.356Z,2.84
2022-11-27T05:20:03.614Z,2.81
2022-11-27T05:22:30.139Z,3.09
2022-11-27T05:24:56.595Z,3.26
2022-11-27T05:27:23.152Z,3.15
2022-11-27T05:29:49.636Z,3.19
2022-11-27T05:32:16.195Z,2.94
2022-11-27T05:34:42.941Z,2.84
2022-11-27T05:37:09.685Z,2.76
2022-11-27T05:39:36.242Z,2.67
2022-11-27T05:42:02.722Z,2.75
2022-11-27T05:44:29.357Z,2.73
2022-11-27T05:46:57.117Z,2.72
2022-11-27T05:49:23.641Z,2.77
2022-11-27T05:51:51.642Z,3.01
2022-11-27T05:54:19.138Z,2.90
2022-11-27T05:56:45.780Z,2.84
2022-11-27T05:59:12.634Z,2.71
2022-11-27T06:01:39.357Z,2.76
2022-11-27T06:04:05.923Z,2.75
2022-11-27T06:06:32.432Z,2.96
2022-11-27T06:08:58.909Z,2.73
2022-11-27T06:11:25.557Z,2.93
2022-11-27T06:13:52.029Z,2.90
2022-11-27T06:16:21.515Z,2.64
2022-11-27T06:18:52.468Z,2.72
2022-11-27T06:21:19.591Z,2.63
2022-11-27T06:23:46.400Z,2.64
2022-11-27T06:26:27.704Z,2.89
2022-11-27T06:28:55.826Z,2.75
2022-11-27T06:31:26.320Z,2.68
2022-11-27T06:33:54.224Z,2.71
2022-11-27T06:36:21.974Z,2.63
2022-11-27T06:38:48.526Z,2.57
2022-11-27T06:41:21.078Z,2.47
2022-11-27T06:43:48.008Z,2.36
2022-11-27T06:46:16.973Z,2.45
2022-11-27T06:48:45.397Z,2.30
2022-11-27T06:51:14.342Z,2.73
2022-11-27T06:53:41.551Z,2.78
2022-11-27T06:56:10.484Z,2.84
2022-11-27T06:58:37.473Z,2.62
2022-11-27T07:01:07.390Z,2.70
2022-11-27T07:03:34.517Z,2.76
2022-11-27T07:06:03.400Z,2.59
2022-11-27T07:08:30.532Z,2.72
2022-11-27T07:11:04.911Z,2.71
2022-11-27T07:13:31.757Z,2.63
2022-11-27T07:16:06.896Z,2.50
2022-11-27T07:18:39.001Z,2.62
2022-11-27T07:21:05.772Z,2.82
2022-11-27T07:23:32.605Z,2.58
2022-11-27T07:25:59.464Z,2.59
2022-11-27T07:28:26.265Z,2.89
2022-11-27T07:30:56.844Z,2.97
2022-11-27T07:33:25.382Z,2.65
2022-11-27T07:36:03.762Z,2.72
2022-11-27T07:38:30.319Z,2.97
2022-11-27T07:41:00.396Z,3.10
2022-11-27T07:43:27.572Z,3.20
2022-11-27T07:45:54.266Z,2.91
2022-11-27T07:48:20.875Z,2.72
2022-11-27T07:50:47.444Z,3.00
2022-11-27T07:53:14.034Z,3.20
2022-11-27T07:55:41.905Z,2.81
2022-11-27T07:58:08.818Z,3.17
2022-11-27T08:00:36.002Z,3.06
2022-11-27T08:03:03.262Z,2.79
2022-11-27T08:05:30.461Z,2.76
2022-11-27T08:08:00.017Z,3.09
2022-11-27T08:10:26.979Z,3.22
2022-11-27T08:12:53.549Z,3.54
2022-11-27T08:15:20.149Z,3.22
2022-11-27T08:17:46.766Z,3.50
2022-11-27T08:20:13.442Z,3.61
2022-11-27T08:22:40.196Z,3.64
2022-11-27T08:25:07.397Z,3.70
2022-11-27T08:27:34.101Z,3.68
2022-11-27T08:30:00.915Z,3.68
2022-11-27T08:32:33.558Z,3.42
2022-11-27T08:35:00.125Z,3.31
2022-11-27T08:37:26.569Z,3.52
2022-11-27T08:39:53.138Z,3.63
2022-11-27T08:42:19.606Z,3.36
2022-11-27T08:44:46.235Z,3.44
2022-11-27T08:47:15.438Z,3.80
2022-11-27T08:49:46.093Z,3.89
2022-11-27T08:52:13.236Z,3.82
2022-11-27T08:54:40.106Z,3.84
2022-11-27T08:57:06.784Z,3.71
2022-11-27T08:59:33.497Z,3.95
2022-11-27T09:01:59.973Z,4.01
2022-11-27T09:04:26.524Z,3.92
2022-11-27T09:06:58.147Z,4.16
2022-11-27T09:09:25.356Z,4.42
2022-11-27T09:11:54.380Z,4.57
2022-11-27T09:14:20.863Z,4.82
2022-11-27T09:16:47.521Z,4.96
2022-11-27T09:19:14.001Z,4.77
2022-11-27T09:21:40.535Z,4.95
2022-11-27T09:24:07.255Z,4.89
2022-11-27T09:26:33.711Z,4.64
2022-11-27T09:29:00.267Z,4.56
2022-11-27T09:31:27.533Z,4.39
2022-11-27T09:33:54.458Z,4.51
2022-11-27T09:36:24.238Z,4.48
2022-11-27T09:38:51.324Z,4.71
2022-11-27T09:41:39.699Z,4.91
2022-11-27T09:44:28.180Z,5.06
2022-11-27T09:46:57.007Z,5.06
2022-11-27T09:49:34.394Z,5.17
2022-11-27T09:52:10.046Z,5.16
2022-11-27T09:54:52.489Z,5.03
2022-11-27T09:57:27.783Z,5.08
2022-11-27T09:59:55.667Z,5.14
2022-11-27T10:02:31.823Z,5.22
2022-11-27T10:05:16.627Z,5.66
2022-11-27T10:08:07.029Z,5.98
2022-11-27T10:10:33.875Z,6.27
2022-11-27T10:13:07.768Z,6.76
2022-11-27T10:15:43.294Z,7.37
2022-11-27T10:18:24.700Z,7.24
2022-11-27T10:20:57.752Z,6.51
2022-11-27T10:23:46.526Z,6.46
2022-11-27T10:26:41.142Z,6.10
2022-11-27T10:29:17.595Z,5.67
2022-11-27T10:31:57.256Z,6.00
2022-11-27T10:34:48.543Z,6.84
2022-11-27T10:37:23.593Z,8.13
2022-11-27T10:39:56.315Z,8.39
2022-11-27T10:42:31.861Z,7.85
2022-11-27T10:45:05.191Z,8.00
2022-11-27T10:47:33.822Z,7.39
2022-11-27T10:50:00.911Z,7.50
2022-11-27T10:52:27.414Z,7.43
2022-11-27T10:55:02.147Z,7.22
2022-11-27T10:57:57.364Z,7.53
2022-11-27T11:00:25.250Z,6.84
2022-11-27T11:03:03.564Z,6.82
2022-11-27T11:05:41.341Z,6.97
2022-11-27T11:08:19.820Z,6.95
2022-11-27T11:10:49.363Z,7.52
2022-11-27T11:13:17.886Z,7.64
2022-11-27T11:16:06.983Z,8.29
2022-11-27T11:18:43.581Z,8.00
2022-11-27T11:21:30.580Z,8.10
2022-11-27T11:24:05.165Z,7.91
2022-11-27T11:26:39.031Z,7.05
2022-11-27T11:29:19.170Z,7.30
2022-11-27T11:31:45.969Z,7.20
2022-11-27T11:34:43.978Z,7.99
2022-11-27T11:37:40.439Z,8.02
2022-11-27T11:40:20.227Z,8.50
2022-11-27T11:42:59.214Z,8.06
2022-11-27T11:45:31.203Z,8.27
2022-11-27T11:48:03.900Z,8.62
2022-11-27T11:50:37.182Z,8.88
2022-11-27T11:53:32.024Z,8.67
2022-11-27T11:56:05.276Z,8.47
2022-11-27T11:58:40.446Z,8.32
2022-11-27T12:01:29.344Z,7.86
2022-11-27T12:03:58.650Z,7.49
2022-11-27T12:07:03.329Z,7.09
2022-11-27T12:09:48.024Z,7.19
2022-11-27T12:12:26.650Z,7.28
2022-11-27T12:15:14.386Z,7.40
2022-11-27T12:18:05.244Z,7.02
2022-11-27T12:20:51.460Z,6.91
2022-11-27T12:23:23.902Z,7.02
2022-11-27T12:26:07.785Z,7.40
2022-11-27T12:29:02.091Z,7.59
2022-11-27T12:31:39.348Z,7.51
2022-11-27T12:34:29.988Z,7.46
2022-11-27T12:37:26.587Z,7.00
2022-11-27T12:40:05.151Z,7.15
2022-11-27T12:42:56.902Z,7.20
2022-11-27T12:45:32.943Z,7.04
2022-11-27T12:48:07.048Z,7.24
2022-11-27T12:50:42.346Z,7.52
2022-11-27T12:53:35.997Z,7.08
2022-11-27T12:56:24.524Z,6.79
2022-11-27T12:59:03.992Z,7.22
2022-11-27T13:01:55.964Z,7.22
2022-11-27T13:04:30.342Z,7.35
2022-11-27T13:07:06.510Z,7.21
2022-11-27T13:09:50.199Z,6.92
2022-11-27T13:12:29.432Z,7.06
2022-11-27T13:15:02.833Z,7.31
2022-11-27T13:17:41.351Z,7.04
2022-11-27T13:20:23.247Z,7.24
2022-11-27T13:22:50.717Z,6.95
2022-11-27T13:25:17.332Z,6.87
2022-11-27T13:27:47.216Z,7.09
2022-11-27T13:30:23.837Z,6.80
2022-11-27T13:32:59.677Z,6.94
2022-11-27T13:35:30.377Z,6.98
2022-11-27T13:38:06.729Z,7.13
2022-11-27T13:40:40.880Z,7.04
2022-11-27T13:43:28.731Z,7.16
2022-11-27T13:46:07.802Z,6.97
2022-11-27T13:48:46.886Z,7.12
2022-11-27T13:51:23.871Z,6.98
2022-11-27T13:53:50.347Z,6.88
2022-11-27T13:56:29.952Z,6.64
2022-11-27T13:58:56.506Z,6.66
2022-11-27T14:01:24.621Z,6.69
2022-11-27T14:03:52.073Z,6.74
2022-11-27T14:06:30.927Z,6.73
2022-11-27T14:09:05.889Z,6.87
2022-11-27T14:11:44.225Z,6.72
2022-11-27T14:14:17.276Z,6.79
2022-11-27T14:16:53.955Z,6.97
2022-11-27T14:19:38.177Z,6.81
2022-11-27T14:23:09.977Z,6.81
2022-11-27T14:25:33.868Z,7.06
2022-11-27T14:28:10.906Z,7.02
2022-11-27T14:30:52.251Z,6.91
2022-11-27T14:33:21.668Z,6.95
2022-11-27T14:35:50.808Z,6.81
2022-11-27T14:38:17.413Z,6.68
2022-11-27T14:40:44.622Z,6.50
2022-11-27T14:43:16.070Z,6.61
2022-11-27T14:45:49.974Z,6.69
2022-11-27T14:48:25.223Z,6.61
2022-11-27T14:50:53.969Z,6.50
2022-11-27T14:53:22.843Z,6.60
2022-11-27T14:55:52.641Z,6.68
2022-11-27T14:58:26.628Z,6.56
2022-11-27T15:01:05.682Z,6.49
2022-11-27T15:03:33.596Z,6.51
2022-11-27T15:06:02.908Z,6.47
2022-11-27T15:08:34.488Z,6.40
2022-11-27T15:11:03.225Z,6.17
2022-11-27T15:13:33.342Z,6.05
2022-11-27T15:16:14.555Z,6.12
2022-11-27T15:18:42.662Z,6.10
2022-11-27T15:21:18.017Z,6.10
2022-11-27T15:23:46.663Z,6.04
2022-11-27T15:26:19.965Z,6.14
2022-11-27T15:28:54.331Z,6.00
2022-11-27T15:31:27.126Z,6.10
2022-11-27T15:34:04.891Z,6.03
2022-11-27T15:36:56.660Z,6.13
2022-11-27T15:39:36.521Z,6.25
2022-11-27T15:42:08.709Z,6.09
2022-11-27T15:44:35.389Z,6.13
2022-11-27T15:47:04.102Z,5.89
2022-11-27T15:49:30.749Z,5.85
2022-11-27T15:51:57.553Z,5.87
2022-11-27T15:54:24.812Z,5.65
2022-11-27T15:56:51.618Z,5.91
2022-11-27T15:59:20.492Z,5.86
2022-11-27T16:01:47.199Z,5.93
2022-11-27T16:04:13.714Z,5.92
2022-11-27T16:06:40.233Z,5.85
2022-11-27T16:09:07.098Z,5.72
2022-11-27T16:11:33.722Z,5.75
2022-11-27T16:14:00.315Z,5.81
2022-11-27T16:16:27.246Z,5.46
2022-11-27T16:19:00.765Z,5.54
2022-11-27T16:21:30.777Z,5.48
2022-11-27T16:24:00.288Z,5.35
2022-11-27T16:26:28.033Z,5.46
2022-11-27T16:28:54.582Z,5.38
2022-11-27T16:31:22.031Z,5.28
2022-11-27T16:33:48.748Z,5.37
2022-11-27T16:36:21.578Z,5.33
2022-11-27T16:38:48.698Z,5.22
2022-11-27T16:41:17.601Z,5.16
2022-11-27T16:43:47.103Z,5.15
2022-11-27T16:46:23.664Z,5.15
2022-11-27T16:48:50.646Z,5.13
2022-11-27T16:51:21.733Z,5.11
2022-11-27T16:53:50.978Z,5.13
2022-11-27T16:56:20.300Z,5.19
2022-11-27T16:58:48.605Z,5.18
2022-11-27T17:01:22.133Z,5.18
2022-11-27T17:03:50.589Z,5.19
2022-11-27T17:06:20.230Z,5.20
2022-11-27T17:08:47.437Z,5.03
2022-11-27T17:11:20.234Z,5.02
2022-11-27T17:13:48.189Z,5.08
2022-11-27T17:16:15.652Z,5.19
2022-11-27T17:18:45.501Z,5.10
2022-11-27T17:21:27.321Z,5.10
2022-11-27T17:23:56.423Z,5.12
2022-11-27T17:26:24.824Z,5.18
2022-11-27T17:28:51.606Z,5.10
2022-11-27T17:31:20.415Z,5.07
2022-11-27T17:33:47.683Z,5.14
2022-11-27T17:36:15.089Z,4.93
2022-11-27T17:38:41.674Z,5.01
2022-11-27T17:41:10.705Z,5.14
2022-11-27T17:43:38.404Z,5.26
2022-11-27T17:46:09.411Z,5.41
2022-11-27T17:48:36.189Z,5.45
2022-11-27T17:51:04.126Z,5.44
2022-11-27T17:53:32.585Z,5.28
2022-11-27T17:56:07.252Z,5.26
2022-11-27T17:58:34.388Z,5.30
2022-11-27T18:01:02.817Z,5.57
2022-11-27T18:03:30.049Z,5.35
2022-11-27T18:05:57.146Z,5.35
2022-11-27T18:08:24.135Z,5.36
2022-11-27T18:10:50.694Z,5.23
2022-11-27T18:13:17.999Z,5.32
2022-11-27T18:15:44.530Z,5.18
2022-11-27T18:18:11.095Z,5.13
2022-11-27T18:20:37.560Z,5.17
2022-11-27T18:23:04.698Z,5.22
2022-11-27T18:25:31.560Z,5.38
2022-11-27T18:27:58.677Z,5.45
2022-11-27T18:30:25.628Z,5.50
2022-11-27T18:32:52.125Z,5.65
2022-11-27T18:35:18.672Z,5.57
2022-11-27T18:37:45.188Z,5.65
2022-11-27T18:40:12.796Z,5.58
2022-11-27T18:42:39.687Z,5.62
2022-11-27T18:45:16.059Z,5.67
2022-11-27T18:47:52.049Z,5.63
2022-11-27T18:50:18.520Z,5.44
2022-11-27T18:52:45.217Z,5.52
2022-11-27T18:55:12.506Z,5.21
2022-11-27T18:57:39.158Z,5.17
2022-11-27T19:00:06.547Z,5.34
2022-11-27T19:02:33.583Z,5.46
2022-11-27T19:05:00.157Z,5.29
2022-11-27T19:07:28.064Z,5.40
2022-11-27T19:09:54.608Z,5.32
2022-11-27T19:12:21.092Z,5.26
2022-11-27T19:14:48.593Z,5.38
2022-11-27T19:17:15.300Z,5.25
2022-11-27T19:19:54.177Z,5.28
2022-11-27T19:22:21.445Z,5.42
2022-11-27T19:24:49.243Z,5.42
2022-11-27T19:27:15.832Z,5.42
2022-11-27T19:29:42.545Z,5.32
2022-11-27T19:32:09.408Z,5.41
2022-11-27T19:34:36.245Z,5.50
2022-11-27T19:37:02.717Z,5.30
2022-11-27T19:39:29.228Z,5.34
2022-11-27T19:41:57.692Z,5.33
2022-11-27T19:44:24.273Z,5.19
2022-11-27T19:46:50.821Z,5.37
2022-11-27T19:49:18.666Z,5.24
2022-11-27T19:51:45.899Z,4.95
2022-11-27T19:54:16.885Z,5.02
2022-11-27T19:56:43.525Z,5.08
2022-11-27T19:59:12.244Z,5.18
2022-11-27T20:01:40.707Z,5.14
2022-11-27T20:04:09.365Z,5.21
2022-11-27T20:06:35.929Z,5.15
2022-11-27T20:09:04.723Z,5.19
2022-11-27T20:11:35.606Z,5.13
2022-11-27T20:14:05.173Z,5.25
2022-11-27T20:16:34.553Z,5.09
2022-11-27T20:19:02.242Z,4.99
2022-11-27T20:21:28.709Z,5.07
2022-11-27T20:23:57.108Z,4.97
2022-11-27T20:26:26.495Z,4.93
2022-11-27T20:28:54.399Z,4.82
2022-11-27T20:31:29.418Z,4.76
2022-11-27T20:33:58.247Z,4.74
2022-11-27T20:36:25.331Z,4.70
2022-11-27T20:38:55.415Z,4.63
2022-11-27T20:41:23.752Z,4.60
2022-11-27T20:43:54.613Z,4.55
2022-11-27T20:46:21.457Z,4.67
2022-11-27T20:48:50.463Z,4.66
2022-11-27T20:51:20.028Z,4.70
2022-11-27T20:53:48.387Z,4.67
2022-11-27T20:56:17.009Z,4.67
2022-11-27T20:58:45.168Z,4.56
2022-11-27T21:01:17.827Z,4.45
2022-11-27T21:03:46.173Z,4.37
2022-11-27T21:06:14.200Z,4.36
2022-11-27T21:08:40.979Z,4.56
2022-11-27T21:11:29.619Z,4.49
2022-11-27T21:14:09.484Z,4.51
2022-11-27T21:16:41.787Z,4.58
2022-11-27T21:19:14.188Z,4.65
2022-11-27T21:21:40.676Z,4.71
2022-11-27T21:24:07.569Z,4.77
2022-11-27T21:26:35.038Z,4.76
2022-11-27T21:29:03.319Z,4.48
2022-11-27T21:31:37.066Z,4.59
2022-11-27T21:34:05.704Z,4.71
2022-11-27T21:36:36.054Z,4.72
2022-11-27T21:39:07.041Z,4.59
2022-11-27T21:41:34.787Z,4.80
2022-11-27T21:44:02.508Z,4.70
2022-11-27T21:46:29.906Z,4.60
2022-11-27T21:48:59.149Z,4.78
2022-11-27T21:51:27.010Z,4.85
2022-11-27T21:53:55.560Z,4.97
2022-11-27T21:56:24.630Z,4.88
2022-11-27T21:58:52.512Z,4.50
2022-11-27T22:01:22.686Z,4.44
2022-11-27T22:03:54.597Z,4.54
2022-11-27T22:06:22.176Z,4.78
2022-11-27T22:08:49.941Z,4.62
2022-11-27T22:11:19.899Z,4.70
2022-11-27T22:13:46.910Z,4.69
2022-11-27T22:16:19.719Z,4.61
2022-11-27T22:18:47.580Z,4.79
2022-11-27T22:21:14.904Z,4.65
2022-11-27T22:23:42.834Z,4.41
2022-11-27T22:26:16.377Z,4.48
2022-11-27T22:28:43.431Z,4.33
2022-11-27T22:31:19.609Z,4.44
2022-11-27T22:33:47.062Z,4.41
2022-11-27T22:36:15.004Z,4.34
2022-11-27T22:38:42.440Z,4.52
2022-11-27T22:41:09.570Z,4.32
2022-11-27T22:43:37.204Z,4.17
2022-11-27T22:46:05.715Z,4.26
2022-11-27T22:48:32.835Z,4.34
2022-11-27T22:50:59.748Z,4.32
2022-11-27T22:53:26.437Z,4.34
2022-11-27T22:55:52.946Z,4.27
2022-11-27T22:58:19.585Z,4.19
2022-11-27T23:00:46.450Z,4.28
2022-11-27T23:03:12.994Z,4.12
2022-11-27T23:05:44.222Z,4.01
2022-11-27T23:08:10.788Z,3.94
2022-11-27T23:10:38.932Z,3.97
2022-11-27T23:13:06.134Z,4.26
2022-11-27T23:15:33.171Z,4.21
2022-11-27T23:17:59.674Z,4.12
2022-11-27T23:20:26.169Z,4.10
2022-11-27T23:22:52.829Z,4.02
2022-11-27T23:25:19.297Z,3.87
2022-11-27T23:27:47.884Z,3.83
2022-11-27T23:30:15.590Z,3.68
2022-11-27T23:32:44.056Z,3.90
2022-11-27T23:35:11.384Z,3.66
2022-11-27T23:37:37.854Z,3.76
2022-11-27T23:40:05.233Z,3.74
2022-11-27T23:42:34.258Z,3.87
2022-11-27T23:45:00.882Z,3.94
2022-11-27T23:47:27.646Z,4.12
2022-11-27T23:49:54.299Z,4.18
2022-11-27T23:52:20.764Z,3.93
2022-11-27T23:54:47.290Z,3.92
2022-11-27T23:57:13.871Z,3.84
2022-11-27T23:59:40.341Z,3.78
